Futenma Marine Corps Air Station
ROTM : now visible

Airfield :











YOU CAN JOIN US ON...

 
LOGIN :

Register | Disclaimer

   EN    FR    IT 

 









Legend :    VFR   Marginal VFR   IFR   Intensive IFR   Very Intensive IFR
Visi :
Ceiling :
>= 8 km
>= 3000ft
5 to 8 km
1000 to 3000 ft
1500m to 5 km
500 to 1000 ft
800 to 1500m
200 to 500 ft
< 800m
< 200 ft
Symbols :   Thunderstorms  Fog  Heavy snow  Heavy precipitations  Wind > 20 kt







- Airport Elevation : 247 ft


ROTM - Futenma Marine Corps Air Station

CURRENT METAR :
  • 210156Z 05012KT 9999 BKN030 24/22 A2982 RMK SLP086 T02400217

EXPIRED METARs :
  • 210056Z 03011KT 9999 BKN030 24/22 A2982 RMK SLP082 T02380222

TAF TAF ROTM
Valid from the 20 at 19:00 until the 21 at 15:00 UTC


2019/2115 11015G25KT 4000 SHRA BR BKN004 BKN006 OVC010 QNH2974INS
BECMG 2022/2100 34010KT 9999 NSW SCT010 BKN035 BKN050 QNH2976INS 540109
FM210300 36010G18KT 9999 SCT020 SCT060 QNH2976INS 540109
BECMG 2112/2114 06007KT 9999 SCT010 SCT060 QNH2987INS 540109 T22/2015Z T17/2115Z AMD 1900
RJJJ FIR / Asia



MET'MAP, your aeronautical weather chart ! - Copyright ORBIFLY December 2007 - Disclaimer

ORBIFLY MET'MAP TEAM :

Programming & Development : Alexandra Zaïnal
Concept & Development : Baudouin d'Aumeries
Co-Development & Prog : Marc-Olivier Méhu
Technical & hardware support : Manuel Goepfert

Contact : metmap@orbifly.com




SOURCES & CREDITS :

   NOAA       Earth
Advisory